createdAt,value
2018-01-23T00:00:36.674Z,23.65
2018-01-23T00:01:39.147Z,23.17
2018-01-23T00:02:42.377Z,21.70
2018-01-23T00:03:46.368Z,23.40
2018-01-23T00:04:49.654Z,23.73
2018-01-23T00:05:52.122Z,22.52
2018-01-23T00:06:54.956Z,23.15
2018-01-23T00:07:57.530Z,22.98
2018-01-23T00:08:59.994Z,23.20
2018-01-23T00:10:02.468Z,24.23
2018-01-23T00:11:04.981Z,22.37
2018-01-23T00:12:07.465Z,23.15
2018-01-23T00:13:09.924Z,21.80
2018-01-23T00:14:13.686Z,22.83
2018-01-23T00:15:16.156Z,22.87
2018-01-23T00:16:18.741Z,23.85
2018-01-23T00:17:21.265Z,23.92
2018-01-23T00:18:24.477Z,22.75
2018-01-23T00:19:27.003Z,22.25
2018-01-23T00:20:29.485Z,22.48
2018-01-23T00:21:31.965Z,23.00
2018-01-23T00:22:35.271Z,23.92
2018-01-23T00:23:37.756Z,22.65
2018-01-23T00:24:40.227Z,22.87
2018-01-23T00:25:42.694Z,23.30
2018-01-23T00:26:45.920Z,22.15
2018-01-23T00:27:48.389Z,23.25
2018-01-23T00:28:50.870Z,23.92
2018-01-23T00:29:54.087Z,23.48
2018-01-23T00:30:57.321Z,23.20
2018-01-23T00:33:18.169Z,23.40
2018-01-23T00:34:21.394Z,23.35
2018-01-23T00:35:23.963Z,23.08
2018-01-23T00:36:26.419Z,23.65
2018-01-23T00:37:28.905Z,23.50
2018-01-23T00:38:32.152Z,23.85
2018-01-23T00:39:34.720Z,23.92
2018-01-23T00:40:37.185Z,22.87
2018-01-23T00:41:40.401Z,23.02
2018-01-23T00:42:42.862Z,23.77
2018-01-23T00:43:46.108Z,23.08
2018-01-23T00:44:48.698Z,22.85
2018-01-23T00:45:51.469Z,23.77
2018-01-23T00:46:53.930Z,24.52
2018-01-23T00:47:56.453Z,23.33
2018-01-23T00:48:59.145Z,25.05
2018-01-23T00:50:02.366Z,23.62
2018-01-23T00:51:05.611Z,22.77
2018-01-23T00:52:08.228Z,23.05
2018-01-23T00:53:10.689Z,22.42
2018-01-23T00:54:13.204Z,23.95
2018-01-23T00:55:16.431Z,23.62
2018-01-23T00:56:19.693Z,23.42
2018-01-23T00:57:22.633Z,23.23
2018-01-23T00:58:25.097Z,24.15
2018-01-23T00:59:27.579Z,21.87
2018-01-23T01:00:30.098Z,24.48
2018-01-23T01:01:33.361Z,23.60
2018-01-23T01:02:35.817Z,24.42
2018-01-23T01:03:38.289Z,22.35
2018-01-23T01:04:41.553Z,24.10
2018-01-23T01:05:44.002Z,23.15
2018-01-23T01:06:46.485Z,23.77
2018-01-23T01:07:48.968Z,23.33
2018-01-23T01:08:51.457Z,24.00
2018-01-23T01:09:53.909Z,23.62
2018-01-23T01:10:56.473Z,23.62
2018-01-23T01:11:59.734Z,22.92
2018-01-23T01:13:02.205Z,24.63
2018-01-23T01:14:05.369Z,23.20
2018-01-23T01:15:07.831Z,22.73
2018-01-23T01:16:10.294Z,24.25
2018-01-23T01:17:12.768Z,23.98
2018-01-23T01:18:15.253Z,24.48
2018-01-23T01:19:17.710Z,22.83
2018-01-23T01:20:20.957Z,25.65
2018-01-23T01:21:23.412Z,22.95
2018-01-23T01:22:25.892Z,24.73
2018-01-23T01:23:29.128Z,24.63
2018-01-23T01:24:32.362Z,24.10
2018-01-23T01:25:34.917Z,23.80
2018-01-23T01:26:38.137Z,23.55
2018-01-23T01:27:40.607Z,23.62
2018-01-23T01:28:43.086Z,23.77
2018-01-23T01:29:45.634Z,24.23
2018-01-23T01:30:48.876Z,23.20
2018-01-23T01:31:52.121Z,24.08
2018-01-23T01:32:54.612Z,24.75
2018-01-23T01:33:58.568Z,24.40
2018-01-23T01:35:01.049Z,23.23
2018-01-23T01:36:03.551Z,23.83
2018-01-23T01:37:06.773Z,22.95
2018-01-23T01:38:09.237Z,24.27
2018-01-23T01:39:11.706Z,24.12
2018-01-23T01:40:14.193Z,21.95
2018-01-23T01:41:16.645Z,23.50
2018-01-23T01:42:19.104Z,24.02
2018-01-23T01:43:22.413Z,23.15
2018-01-23T01:44:24.904Z,24.42
2018-01-23T01:45:27.414Z,24.37
2018-01-23T01:46:30.624Z,22.98
2018-01-23T01:47:33.182Z,23.50
2018-01-23T01:48:47.409Z,23.87
2018-01-23T01:49:49.915Z,23.02
2018-01-23T01:50:52.386Z,23.90
2018-01-23T01:51:54.855Z,23.15
2018-01-23T01:52:57.351Z,23.67
2018-01-23T01:53:59.914Z,24.20
2018-01-23T01:55:02.380Z,23.40
2018-01-23T01:56:04.833Z,25.88
2018-01-23T01:57:08.143Z,24.70
2018-01-23T01:58:10.606Z,24.75
2018-01-23T01:59:13.868Z,25.10
2018-01-23T02:00:16.339Z,26.02
2018-01-23T02:01:18.798Z,25.77
2018-01-23T02:02:22.061Z,24.58
2018-01-23T02:03:24.534Z,25.40
2018-01-23T02:04:26.999Z,23.50
2018-01-23T02:05:30.787Z,23.50
2018-01-23T02:06:33.294Z,24.20
2018-01-23T02:07:35.791Z,25.15
2018-01-23T02:08:39.017Z,22.80
2018-01-23T02:09:42.266Z,24.23
2018-01-23T02:10:45.485Z,24.70
2018-01-23T02:11:47.951Z,26.45
2018-01-23T02:12:51.235Z,24.67
2018-01-23T02:13:53.749Z,23.77
2018-01-23T02:14:56.227Z,24.27
2018-01-23T02:15:58.687Z,24.83
2018-01-23T02:17:01.157Z,24.35
2018-01-23T02:18:03.730Z,23.10
2018-01-23T02:19:06.270Z,23.65
2018-01-23T02:20:08.730Z,24.67
2018-01-23T02:21:11.201Z,24.85
2018-01-23T02:22:14.502Z,26.30
2018-01-23T02:23:16.990Z,24.08
2018-01-23T02:24:19.506Z,24.75
2018-01-23T02:25:22.033Z,24.60
2018-01-23T02:26:24.498Z,24.55
2018-01-23T02:27:26.979Z,24.92
2018-01-23T02:28:29.521Z,24.95
2018-01-23T02:29:32.242Z,24.80
2018-01-23T02:30:34.709Z,25.10
2018-01-23T02:31:37.186Z,25.83
2018-01-23T02:32:39.651Z,24.98
2018-01-23T02:33:42.134Z,26.65
2018-01-23T02:34:45.349Z,25.33
2018-01-23T02:35:48.574Z,24.55
2018-01-23T02:36:51.039Z,24.63
2018-01-23T02:37:53.505Z,24.45
2018-01-23T02:38:56.009Z,23.00
2018-01-23T02:39:58.518Z,24.37
2018-01-23T02:41:01.905Z,25.83
2018-01-23T02:42:04.361Z,24.20
2018-01-23T02:43:07.606Z,25.23
2018-01-23T02:44:10.860Z,25.90
2018-01-23T02:45:14.206Z,24.75
2018-01-23T02:46:17.453Z,25.12
2018-01-23T02:47:19.917Z,26.40
2018-01-23T02:48:22.432Z,26.27
2018-01-23T02:49:24.929Z,25.25
2018-01-23T02:50:27.422Z,23.87
2018-01-23T02:51:29.990Z,25.83
2018-01-23T02:52:32.449Z,24.23
2018-01-23T02:53:34.925Z,25.67
2018-01-23T02:54:38.161Z,25.70
2018-01-23T02:55:41.516Z,24.48
2018-01-23T02:56:44.000Z,25.85
2018-01-23T02:57:46.479Z,25.23
2018-01-23T02:58:49.002Z,24.92
2018-01-23T02:59:51.473Z,25.92
2018-01-23T03:00:53.929Z,25.27
2018-01-23T03:01:57.168Z,25.48
2018-01-23T03:03:00.424Z,24.80
2018-01-23T03:04:03.673Z,24.58
2018-01-23T03:05:06.250Z,25.30
2018-01-23T03:06:08.752Z,24.05
2018-01-23T03:07:11.299Z,24.63
2018-01-23T03:08:13.781Z,26.95
2018-01-23T03:09:16.315Z,25.55
2018-01-23T03:10:18.832Z,25.52
2018-01-23T03:11:21.314Z,25.85
2018-01-23T03:12:23.794Z,25.48
2018-01-23T03:13:26.352Z,25.35
2018-01-23T03:14:28.867Z,26.08
2018-01-23T03:15:32.144Z,25.92
2018-01-23T03:16:34.702Z,24.80
2018-01-23T03:17:37.216Z,27.00
2018-01-23T03:18:40.450Z,25.10
2018-01-23T03:19:43.678Z,26.20
2018-01-23T03:20:46.194Z,27.10
2018-01-23T03:21:48.658Z,26.62
2018-01-23T03:22:51.885Z,27.58
2018-01-23T03:23:55.112Z,26.67
2018-01-23T03:24:57.661Z,28.25
2018-01-23T03:26:00.932Z,26.48
2018-01-23T03:27:03.388Z,27.70
2018-01-23T03:28:07.401Z,29.60
2018-01-23T03:29:09.917Z,27.30
2018-01-23T03:30:12.399Z,27.27
2018-01-23T03:31:14.883Z,27.15
2018-01-23T03:32:17.448Z,28.25
2018-01-23T03:33:20.692Z,25.50
2018-01-23T03:34:23.180Z,26.70
2018-01-23T03:35:25.712Z,27.10
2018-01-23T03:36:28.212Z,27.85
2018-01-23T03:37:31.443Z,27.58
2018-01-23T03:38:34.676Z,29.25
2018-01-23T03:39:37.160Z,28.05
2018-01-23T03:40:39.616Z,27.73
2018-01-23T03:41:42.080Z,25.98
2018-01-23T03:42:44.572Z,28.65
2018-01-23T03:43:47.540Z,29.92
2018-01-23T03:44:50.027Z,27.48
2018-01-23T03:45:52.492Z,27.85
2018-01-23T03:46:54.978Z,29.27
2018-01-23T03:47:57.449Z,28.90
2018-01-23T03:48:59.924Z,28.05
2018-01-23T03:50:03.154Z,28.27
2018-01-23T03:51:05.645Z,29.77
2018-01-23T03:52:08.155Z,27.17
2018-01-23T03:53:10.638Z,29.33
2018-01-23T03:54:13.096Z,29.12
2018-01-23T03:55:16.385Z,29.70
2018-01-23T03:56:18.838Z,28.23
2018-01-23T03:57:22.838Z,27.20
2018-01-23T03:58:25.295Z,29.02
2018-01-23T03:59:27.774Z,26.83
2018-01-23T04:00:30.989Z,26.30
2018-01-23T04:01:33.591Z,27.48
2018-01-23T04:02:36.738Z,27.62
2018-01-23T04:03:39.196Z,28.17
2018-01-23T04:04:42.458Z,27.40
2018-01-23T04:05:44.991Z,28.08
2018-01-23T04:06:47.805Z,26.45
2018-01-23T04:07:50.303Z,27.23
2018-01-23T04:08:52.773Z,28.12
2018-01-23T04:09:55.250Z,26.00
2018-01-23T04:10:58.509Z,27.13
2018-01-23T04:12:02.212Z,26.23
2018-01-23T04:13:04.693Z,28.65
2018-01-23T04:14:07.917Z,27.52
2018-01-23T04:15:10.397Z,28.00
2018-01-23T04:16:12.862Z,28.00
2018-01-23T04:17:15.347Z,27.80
2018-01-23T04:18:17.809Z,26.58
2018-01-23T04:19:20.293Z,27.92
2018-01-23T04:20:22.759Z,27.95
2018-01-23T04:21:25.983Z,27.50
2018-01-23T04:22:28.448Z,27.00
2018-01-23T04:23:31.699Z,27.50
2018-01-23T04:24:34.954Z,27.10
2018-01-23T04:25:37.434Z,27.10
2018-01-23T04:26:39.935Z,27.15
2018-01-23T04:27:42.411Z,27.55
2018-01-23T04:28:45.282Z,29.48
2018-01-23T04:29:47.752Z,29.23
2018-01-23T04:30:50.215Z,28.15
2018-01-23T04:31:53.555Z,29.23
2018-01-23T04:32:56.024Z,28.52
2018-01-23T04:33:58.483Z,27.83
2018-01-23T04:35:01.699Z,27.80
2018-01-23T04:36:04.179Z,28.12
2018-01-23T04:37:06.657Z,29.00
2018-01-23T04:38:09.246Z,29.40
2018-01-23T04:39:11.714Z,29.23
2018-01-23T04:40:14.967Z,28.45
2018-01-23T04:41:18.203Z,31.12
2018-01-23T04:42:21.488Z,28.65
2018-01-23T04:43:23.940Z,29.50
2018-01-23T04:44:26.441Z,28.52
2018-01-23T04:45:28.905Z,29.83
2018-01-23T04:46:32.136Z,30.85
2018-01-23T04:47:34.662Z,30.05
2018-01-23T04:48:37.160Z,30.73
2018-01-23T04:49:39.665Z,31.73
2018-01-23T04:50:42.953Z,31.00
2018-01-23T04:51:45.410Z,31.02
2018-01-23T04:52:48.656Z,29.10
2018-01-23T04:53:51.881Z,28.92
2018-01-23T04:54:55.854Z,29.65
2018-01-23T04:55:58.376Z,28.60
2018-01-23T04:57:00.861Z,30.95
2018-01-23T04:58:03.356Z,29.63
2018-01-23T04:59:05.825Z,28.15
2018-01-23T05:00:08.309Z,28.15
2018-01-23T05:01:11.646Z,28.87
2018-01-23T05:02:14.106Z,28.30
2018-01-23T05:03:16.597Z,29.50
2018-01-23T05:04:19.821Z,28.38
2018-01-23T05:05:22.291Z,30.05
2018-01-23T05:06:24.786Z,29.33
2018-01-23T05:07:27.324Z,28.35
2018-01-23T05:08:29.791Z,30.00
2018-01-23T05:09:32.280Z,27.80
2018-01-23T05:10:34.784Z,27.52
2018-01-23T05:11:37.250Z,27.60
2018-01-23T05:12:39.874Z,27.80
2018-01-23T05:13:42.363Z,28.38
2018-01-23T05:14:45.623Z,29.65
2018-01-23T05:15:48.102Z,28.90
2018-01-23T05:16:50.573Z,28.62
2018-01-23T05:17:53.043Z,28.33
2018-01-23T05:18:55.606Z,28.23
2018-01-23T05:19:58.857Z,29.85
2018-01-23T05:21:01.331Z,27.70
2018-01-23T05:22:03.845Z,27.27
2018-01-23T05:23:06.332Z,28.05
2018-01-23T05:24:09.593Z,28.87
2018-01-23T05:25:12.909Z,27.20
2018-01-23T05:26:16.195Z,26.42
2018-01-23T05:27:18.707Z,26.40
2018-01-23T05:28:21.184Z,28.20
2018-01-23T05:29:23.700Z,27.37
2018-01-23T05:30:27.870Z,28.20
2018-01-23T05:31:30.434Z,28.40
2018-01-23T05:32:32.917Z,29.17
2018-01-23T05:33:35.414Z,29.65
2018-01-23T05:34:37.947Z,26.95
2018-01-23T05:35:40.800Z,28.12
2018-01-23T05:36:43.314Z,28.38
2018-01-23T05:37:45.878Z,28.87
2018-01-23T05:38:49.756Z,25.60
2018-01-23T05:39:52.235Z,29.83
2018-01-23T05:40:54.730Z,28.25
2018-01-23T05:41:57.226Z,27.40
2018-01-23T05:42:59.711Z,28.62
2018-01-23T05:44:02.260Z,29.70
2018-01-23T05:45:04.815Z,26.55
2018-01-23T05:46:07.390Z,28.27
2018-01-23T05:47:09.976Z,29.70
2018-01-23T05:48:12.598Z,30.40
2018-01-23T05:49:15.189Z,31.48
2018-01-23T05:50:18.591Z,29.63
2018-01-23T05:51:21.184Z,29.20
2018-01-23T05:52:23.736Z,29.05
2018-01-23T05:53:26.262Z,30.55
2018-01-23T05:54:28.774Z,28.23
2018-01-23T05:55:31.249Z,27.80
2018-01-23T05:56:33.810Z,28.70
2018-01-23T05:57:36.265Z,30.75
2018-01-23T05:58:38.780Z,29.98
2018-01-23T05:59:41.270Z,30.02
2018-01-23T06:00:44.672Z,28.10
2018-01-23T06:01:47.221Z,29.67
2018-01-23T06:02:49.743Z,28.38
2018-01-23T06:03:52.280Z,29.00
2018-01-23T06:04:54.809Z,28.60
2018-01-23T06:05:57.305Z,29.30
2018-01-23T06:06:59.906Z,27.17
2018-01-23T06:08:02.393Z,27.67
2018-01-23T06:09:04.863Z,28.17
2018-01-23T06:10:07.331Z,28.15
2018-01-23T06:11:09.934Z,28.12
2018-01-23T06:12:12.425Z,29.70
2018-01-23T06:13:14.957Z,27.83
2018-01-23T06:14:17.461Z,28.30
2018-01-23T06:15:20.685Z,28.75
2018-01-23T06:16:23.912Z,29.02
2018-01-23T06:17:26.546Z,31.42
2018-01-23T06:18:29.088Z,30.05
2018-01-23T06:19:31.610Z,31.60
2018-01-23T06:20:34.074Z,31.40
2018-01-23T06:21:36.545Z,32.22
2018-01-23T06:22:39.021Z,28.75
2018-01-23T06:23:41.510Z,30.15
2018-01-23T06:24:44.760Z,32.45
2018-01-23T06:25:48.009Z,31.67
2018-01-23T06:26:51.235Z,28.90
2018-01-23T06:27:54.476Z,30.88
2018-01-23T06:28:57.730Z,30.52
2018-01-23T06:30:01.079Z,32.33
2018-01-23T06:31:04.309Z,31.15
2018-01-23T06:32:07.553Z,30.73
2018-01-23T06:33:10.023Z,31.87
2018-01-23T06:34:12.912Z,32.90
2018-01-23T06:35:20.030Z,32.53
2018-01-23T06:36:22.486Z,34.95
2018-01-23T06:37:24.967Z,33.20
2018-01-23T06:38:27.481Z,31.90
2018-01-23T06:39:29.925Z,32.00
2018-01-23T06:40:32.401Z,33.78
2018-01-23T06:41:34.925Z,33.15
2018-01-23T06:42:37.447Z,32.30
2018-01-23T06:43:39.932Z,33.13
2018-01-23T06:44:42.401Z,34.08
2018-01-23T06:45:44.861Z,34.47
2018-01-23T06:46:47.376Z,34.75
2018-01-23T06:47:49.877Z,35.60
2018-01-23T06:48:52.361Z,33.20
2018-01-23T06:49:54.823Z,34.28
2018-01-23T06:50:57.282Z,33.30
2018-01-23T06:51:59.777Z,32.60
2018-01-23T06:53:02.255Z,34.10
2018-01-23T06:54:04.717Z,34.28
2018-01-23T06:55:07.197Z,35.58
2018-01-23T06:56:10.482Z,34.85
2018-01-23T06:57:13.019Z,35.28
2018-01-23T06:58:15.522Z,34.70
2018-01-23T06:59:18.773Z,35.97
2018-01-23T07:00:21.250Z,36.20
2018-01-23T07:01:23.762Z,37.75
2018-01-23T07:02:26.231Z,37.58
2018-01-23T07:03:29.466Z,37.90
2018-01-23T07:04:32.750Z,34.30
2018-01-23T07:05:35.257Z,34.30
2018-01-23T07:06:37.723Z,36.00
2018-01-23T07:07:40.185Z,34.13
2018-01-23T07:08:43.417Z,38.08
2018-01-23T07:09:47.967Z,33.22
2018-01-23T07:10:50.672Z,36.63
2018-01-23T07:11:53.195Z,36.22
2018-01-23T07:12:55.795Z,35.08
2018-01-23T07:13:59.051Z,36.50
2018-01-23T07:15:01.588Z,37.95
2018-01-23T07:16:04.814Z,37.22
2018-01-23T07:17:08.033Z,37.50
2018-01-23T07:18:11.291Z,36.13
2018-01-23T07:19:14.603Z,35.92
2018-01-23T07:20:17.052Z,35.25
2018-01-23T07:21:20.313Z,37.20
2018-01-23T07:22:22.793Z,37.10
2018-01-23T07:23:26.071Z,35.67
2018-01-23T07:24:29.368Z,35.22
2018-01-23T07:25:31.959Z,36.58
2018-01-23T07:26:34.438Z,37.08
2018-01-23T07:27:37.673Z,40.40
2018-01-23T07:28:40.162Z,36.53
2018-01-23T07:29:42.666Z,37.20
2018-01-23T07:30:45.169Z,37.33
2018-01-23T07:31:48.401Z,36.03
2018-01-23T07:32:50.968Z,36.13
2018-01-23T07:33:53.444Z,37.17
2018-01-23T07:34:55.922Z,36.90
2018-01-23T07:35:58.450Z,36.60
2018-01-23T07:37:00.937Z,35.97
2018-01-23T07:38:04.242Z,36.95
2018-01-23T07:39:06.700Z,35.95
2018-01-23T07:40:09.183Z,36.70
2018-01-23T07:41:11.651Z,37.47
2018-01-23T07:42:14.821Z,38.67
2018-01-23T07:43:18.056Z,38.20
2018-01-23T07:44:21.326Z,35.13
2018-01-23T07:45:23.780Z,36.85
2018-01-23T07:46:26.264Z,35.70
2018-01-23T07:47:29.293Z,39.22
2018-01-23T07:48:31.765Z,38.15
2018-01-23T07:49:34.279Z,36.25
2018-01-23T07:50:37.534Z,36.78
2018-01-23T07:51:40.018Z,31.20
2018-01-23T07:52:42.489Z,32.30
2018-01-23T07:53:44.957Z,31.48
2018-01-23T07:54:47.481Z,34.53
2018-01-23T07:55:50.703Z,35.03
2018-01-23T07:56:53.170Z,34.00
2018-01-23T07:57:55.678Z,34.63
2018-01-23T07:58:58.147Z,34.70
2018-01-23T08:00:00.638Z,34.15
2018-01-23T08:01:03.166Z,36.63
2018-01-23T08:02:05.682Z,33.60
2018-01-23T08:03:08.157Z,31.35
2018-01-23T08:04:10.646Z,32.47
2018-01-23T08:05:13.150Z,35.38
2018-01-23T08:06:16.419Z,33.92
2018-01-23T08:07:18.928Z,34.28
2018-01-23T08:08:21.404Z,34.60
2018-01-23T08:09:23.875Z,33.80
2018-01-23T08:10:26.354Z,35.95
2018-01-23T08:11:28.816Z,33.97
2018-01-23T08:12:32.114Z,32.70
2018-01-23T08:13:34.600Z,32.58
2018-01-23T08:14:37.065Z,31.98
2018-01-23T08:15:39.664Z,31.95
2018-01-23T08:16:42.128Z,30.40
2018-01-23T08:17:46.131Z,31.50
2018-01-23T08:18:49.296Z,31.75
2018-01-23T08:19:51.775Z,31.37
2018-01-23T08:20:54.269Z,30.45
2018-01-23T08:21:56.839Z,30.65
2018-01-23T08:23:00.090Z,31.75
2018-01-23T08:24:02.579Z,32.90
2018-01-23T08:25:05.050Z,32.20
2018-01-23T08:26:07.560Z,32.30
2018-01-23T08:27:10.803Z,31.77
2018-01-23T08:28:13.333Z,30.85
2018-01-23T08:29:15.802Z,27.58
2018-01-23T08:30:18.311Z,30.70
2018-01-23T08:31:20.767Z,32.05
2018-01-23T08:32:23.258Z,28.95
2018-01-23T08:33:25.711Z,30.48
2018-01-23T08:34:28.209Z,31.73
2018-01-23T08:35:30.717Z,30.27
2018-01-23T08:36:33.226Z,28.70
2018-01-23T08:37:35.684Z,27.35
2018-01-23T08:38:38.148Z,30.25
2018-01-23T08:39:40.659Z,30.25
2018-01-23T08:40:43.115Z,29.00
2018-01-23T08:41:46.356Z,30.85
2018-01-23T08:42:49.603Z,29.37
2018-01-23T08:43:52.833Z,27.87
2018-01-23T08:44:56.102Z,30.75
2018-01-23T08:45:58.554Z,29.27
2018-01-23T08:47:01.023Z,29.77
2018-01-23T08:48:04.274Z,29.30
2018-01-23T08:49:07.510Z,30.55
2018-01-23T08:50:10.770Z,29.95
2018-01-23T08:51:14.004Z,29.27
2018-01-23T08:52:17.258Z,30.50
2018-01-23T08:53:19.718Z,29.52
2018-01-23T08:54:22.181Z,30.80
2018-01-23T08:55:25.453Z,28.50
2018-01-23T08:56:27.930Z,29.52
2018-01-23T08:57:31.936Z,29.10
2018-01-23T08:58:34.394Z,29.15
2018-01-23T08:59:37.021Z,28.58
2018-01-23T09:00:39.489Z,27.60
2018-01-23T09:01:42.722Z,29.95
2018-01-23T09:02:45.212Z,29.52
2018-01-23T09:03:47.687Z,29.67
2018-01-23T09:04:50.933Z,30.05
2018-01-23T09:05:54.162Z,29.73
2018-01-23T09:06:56.626Z,31.30
2018-01-23T09:07:59.457Z,29.10
2018-01-23T09:09:01.965Z,29.63
2018-01-23T09:10:04.447Z,29.83
2018-01-23T09:11:07.060Z,30.15
2018-01-23T09:12:09.542Z,29.40
2018-01-23T09:13:12.795Z,31.52
2018-01-23T09:14:15.264Z,29.92
2018-01-23T09:15:17.744Z,29.23
2018-01-23T09:16:20.268Z,26.60
2018-01-23T09:17:23.492Z,28.67
2018-01-23T09:18:26.751Z,29.37
2018-01-23T09:19:29.229Z,29.20
2018-01-23T09:20:31.806Z,27.23
2018-01-23T09:21:34.280Z,27.17
2018-01-23T09:22:36.753Z,26.12
2018-01-23T09:23:39.233Z,27.92
2018-01-23T09:24:43.325Z,26.75
2018-01-23T09:25:46.668Z,25.23
2018-01-23T09:26:49.963Z,26.70
2018-01-23T09:27:52.504Z,25.95
2018-01-23T09:28:55.095Z,26.52
2018-01-23T09:29:57.558Z,26.92
2018-01-23T09:31:00.045Z,27.02
2018-01-23T09:32:02.511Z,28.20
2018-01-23T09:33:04.984Z,27.52
2018-01-23T09:34:07.479Z,29.27
2018-01-23T09:35:09.939Z,27.20
2018-01-23T09:36:12.446Z,27.70
2018-01-23T09:37:15.799Z,28.38
2018-01-23T09:38:18.294Z,28.00
2018-01-23T09:39:20.745Z,27.65
2018-01-23T09:40:23.226Z,28.60
2018-01-23T09:41:25.746Z,28.95
2018-01-23T09:42:28.237Z,29.83
2018-01-23T09:43:30.754Z,28.73
2018-01-23T09:44:33.215Z,29.45
2018-01-23T09:45:35.677Z,27.75
2018-01-23T09:46:38.170Z,29.33
2018-01-23T09:47:40.716Z,29.02
2018-01-23T09:48:43.131Z,27.17
2018-01-23T09:49:45.652Z,28.98
2018-01-23T09:50:48.159Z,27.83
2018-01-23T09:51:50.641Z,27.98
2018-01-23T09:52:54.745Z,27.70
2018-01-23T09:53:57.207Z,28.02
2018-01-23T09:54:59.782Z,26.80
2018-01-23T09:56:02.242Z,28.35
2018-01-23T09:57:04.707Z,27.10
2018-01-23T09:58:07.952Z,26.02
2018-01-23T09:59:10.410Z,28.05
2018-01-23T10:00:13.117Z,26.08
2018-01-23T10:01:15.593Z,27.77
2018-01-23T10:02:18.085Z,29.05
2018-01-23T10:03:20.581Z,27.08
2018-01-23T10:04:23.810Z,24.95
2018-01-23T10:05:27.240Z,27.70
2018-01-23T10:06:29.660Z,27.13
2018-01-23T10:07:32.212Z,27.27
2018-01-23T10:08:35.458Z,27.35
2018-01-23T10:09:38.690Z,26.30
2018-01-23T10:10:41.973Z,25.98
2018-01-23T10:11:44.470Z,25.40
2018-01-23T10:12:47.693Z,26.37
2018-01-23T10:13:50.192Z,26.27
2018-01-23T10:14:52.641Z,25.50
2018-01-23T10:15:56.010Z,25.48
2018-01-23T10:16:58.499Z,25.30
2018-01-23T10:18:01.167Z,25.25
2018-01-23T10:19:03.711Z,25.67
2018-01-23T10:20:06.169Z,26.05
2018-01-23T10:21:08.700Z,25.30
2018-01-23T10:22:11.185Z,24.63
2018-01-23T10:23:13.654Z,25.45
2018-01-23T10:24:16.107Z,26.52
2018-01-23T10:25:19.341Z,25.67
2018-01-23T10:26:22.591Z,25.90
2018-01-23T10:27:25.811Z,24.02
2018-01-23T10:28:28.278Z,22.85
2018-01-23T10:29:30.798Z,26.58
2018-01-23T10:30:33.293Z,24.45
2018-01-23T10:31:35.765Z,25.23
2018-01-23T10:32:38.239Z,26.98
2018-01-23T10:33:40.787Z,24.58
2018-01-23T10:34:44.034Z,24.33
2018-01-23T10:35:47.774Z,24.10
2018-01-23T10:36:51.078Z,22.95
2018-01-23T10:37:53.564Z,24.67
2018-01-23T10:38:56.133Z,24.80
2018-01-23T10:39:58.594Z,23.92
2018-01-23T10:41:01.871Z,24.58
2018-01-23T10:42:04.375Z,23.98
2018-01-23T10:43:06.891Z,23.65
2018-01-23T10:44:10.114Z,23.17
2018-01-23T10:45:12.720Z,22.85
2018-01-23T10:46:15.209Z,23.48
2018-01-23T10:47:17.725Z,24.17
2018-01-23T10:48:20.218Z,24.58
2018-01-23T10:49:23.446Z,24.75
2018-01-23T10:50:25.924Z,25.00
2018-01-23T10:51:28.399Z,22.65
2018-01-23T10:52:30.865Z,24.05
2018-01-23T10:53:33.354Z,23.00
2018-01-23T10:54:36.607Z,22.83
2018-01-23T10:55:39.090Z,23.33
2018-01-23T10:56:41.942Z,24.12
2018-01-23T10:57:44.421Z,22.90
2018-01-23T10:58:46.933Z,23.95
2018-01-23T10:59:50.228Z,22.55
2018-01-23T11:00:58.503Z,22.15
2018-01-23T11:02:01.064Z,22.37
2018-01-23T11:03:04.328Z,23.35
2018-01-23T11:04:06.859Z,23.83
2018-01-23T11:05:09.413Z,22.17
2018-01-23T11:06:11.888Z,23.10
2018-01-23T11:07:14.345Z,22.30
2018-01-23T11:08:16.813Z,22.05
2018-01-23T11:09:19.301Z,21.25
2018-01-23T11:10:21.782Z,22.75
2018-01-23T11:11:25.026Z,21.50
2018-01-23T11:12:28.465Z,22.42
2018-01-23T11:13:31.136Z,22.92
2018-01-23T11:14:33.670Z,23.70
2018-01-23T11:15:36.691Z,23.75
2018-01-23T11:16:39.237Z,23.40
2018-01-23T11:17:41.734Z,21.90
2018-01-23T11:18:44.234Z,23.10
2018-01-23T11:19:47.516Z,23.83
2018-01-23T11:20:50.339Z,24.05
2018-01-23T11:21:52.816Z,23.42
2018-01-23T11:22:55.393Z,23.73
2018-01-23T11:23:58.066Z,25.77
2018-01-23T11:25:00.561Z,25.83
2018-01-23T11:26:03.054Z,26.48
2018-01-23T11:27:05.552Z,24.37
2018-01-23T11:28:08.097Z,24.77
2018-01-23T11:29:11.339Z,25.15
2018-01-23T11:30:13.904Z,25.35
2018-01-23T11:31:16.374Z,25.95
2018-01-23T11:32:18.834Z,25.80
2018-01-23T11:33:21.353Z,26.30
2018-01-23T11:34:23.890Z,26.37
2018-01-23T11:35:26.379Z,27.52
2018-01-23T11:36:29.641Z,27.45
2018-01-23T11:37:32.878Z,27.10
2018-01-23T11:38:36.116Z,27.17
2018-01-23T11:39:39.362Z,26.67
2018-01-23T11:40:42.629Z,26.27
2018-01-23T11:41:45.154Z,26.48
2018-01-23T11:42:47.625Z,26.50
2018-01-23T11:43:50.088Z,25.55
2018-01-23T11:44:52.628Z,24.42
2018-01-23T11:45:55.120Z,27.08
2018-01-23T11:46:57.574Z,25.30
2018-01-23T11:48:00.075Z,28.45
2018-01-23T11:49:03.317Z,26.10
2018-01-23T11:50:06.625Z,25.70
2018-01-23T11:51:09.099Z,26.33
2018-01-23T11:52:12.345Z,26.77
2018-01-23T11:53:14.826Z,26.87
2018-01-23T11:54:17.302Z,26.50
2018-01-23T11:55:19.781Z,26.55
2018-01-23T11:56:22.267Z,26.73
2018-01-23T11:57:24.753Z,27.17
2018-01-23T11:58:27.993Z,28.17
2018-01-23T11:59:31.295Z,27.58
2018-01-23T12:00:33.795Z,27.20
2018-01-23T12:01:36.323Z,27.73
2018-01-23T12:02:38.799Z,26.83
2018-01-23T12:03:41.281Z,27.30
2018-01-23T12:04:43.765Z,26.52
2018-01-23T12:05:47.549Z,26.05
2018-01-23T12:06:50.062Z,25.02
2018-01-23T12:07:52.540Z,27.67
2018-01-23T12:08:55.006Z,26.02
2018-01-23T12:09:57.483Z,25.25
2018-01-23T12:10:59.953Z,25.83
2018-01-23T12:12:02.453Z,25.85
2018-01-23T12:13:04.910Z,27.05
2018-01-23T12:14:07.371Z,26.05
2018-01-23T12:15:09.894Z,29.45
2018-01-23T12:16:12.344Z,27.90
2018-01-23T12:17:14.862Z,26.67
2018-01-23T12:18:17.330Z,28.73
2018-01-23T12:19:19.909Z,28.15
2018-01-23T12:20:22.314Z,28.62
2018-01-23T12:21:24.798Z,28.73
2018-01-23T12:22:28.038Z,27.98
2018-01-23T12:23:31.290Z,27.23
2018-01-23T12:24:33.745Z,28.23
2018-01-23T12:25:36.218Z,28.05
2018-01-23T12:26:39.698Z,28.80
2018-01-23T12:27:42.206Z,29.27
2018-01-23T12:28:45.449Z,28.20
2018-01-23T12:29:48.686Z,28.48
2018-01-23T12:30:51.949Z,28.23
2018-01-23T12:31:54.437Z,28.05
2018-01-23T12:32:56.909Z,27.20
2018-01-23T12:33:59.386Z,27.48
2018-01-23T12:35:01.883Z,26.58
2018-01-23T12:36:04.594Z,27.83
2018-01-23T12:37:07.077Z,24.73
2018-01-23T12:38:10.325Z,25.05
2018-01-23T12:39:13.569Z,26.70
2018-01-23T12:40:16.799Z,25.98
2018-01-23T12:41:19.317Z,27.10
2018-01-23T12:42:21.798Z,27.95
2018-01-23T12:43:24.906Z,26.23
2018-01-23T12:44:28.161Z,26.52
2018-01-23T12:45:33.074Z,25.83
2018-01-23T12:46:36.383Z,25.92
2018-01-23T12:47:38.855Z,25.88
2018-01-23T12:48:41.449Z,24.92
2018-01-23T12:49:43.966Z,25.45
2018-01-23T12:50:46.429Z,24.95
2018-01-23T12:51:48.934Z,25.30
2018-01-23T12:52:51.442Z,25.90
2018-01-23T12:53:53.915Z,25.77
2018-01-23T12:54:57.170Z,25.12
2018-01-23T12:55:59.747Z,25.00
2018-01-23T12:57:02.252Z,23.83
2018-01-23T12:58:05.477Z,24.83
2018-01-23T12:59:08.847Z,24.37
2018-01-23T13:00:11.367Z,25.25
2018-01-23T13:01:13.930Z,25.45
2018-01-23T13:02:17.099Z,24.90
2018-01-23T13:03:20.635Z,26.10
2018-01-23T13:04:24.038Z,23.35
2018-01-23T13:05:27.595Z,24.52
2018-01-23T13:18:33.057Z,26.95
2018-01-23T13:19:35.526Z,26.15
2018-01-23T13:20:38.108Z,25.70
2018-01-23T13:21:41.324Z,24.85
2018-01-23T13:22:44.562Z,25.20
2018-01-23T13:23:47.945Z,24.98
2018-01-23T13:24:50.410Z,23.25
2018-01-23T13:25:52.889Z,23.10
2018-01-23T13:26:55.359Z,24.05
2018-01-23T13:27:57.806Z,23.62
2018-01-23T13:29:00.370Z,24.50
2018-01-23T13:30:02.860Z,24.10
2018-01-23T13:31:05.405Z,24.77
2018-01-23T13:32:07.865Z,23.73
2018-01-23T13:33:10.465Z,23.50
2018-01-23T13:34:12.940Z,23.52
2018-01-23T13:35:15.469Z,24.23
2018-01-23T13:36:17.901Z,24.30
2018-01-23T13:37:20.370Z,24.10
2018-01-23T13:38:22.860Z,23.90
2018-01-23T13:39:26.088Z,25.50
2018-01-23T13:40:28.621Z,24.85
2018-01-23T13:41:31.137Z,25.60